sensor_id;sensor_type;location;lat;lon;timestamp;temperature;humidity
11079;DHT22;5592;49.234;7.268;2024-01-16T00:01:37;-2.10;99.90
11079;DHT22;5592;49.234;7.268;2024-01-16T00:04:03;-2.20;99.90
11079;DHT22;5592;49.234;7.268;2024-01-16T00:06:29;-2.20;99.90
11079;DHT22;5592;49.234;7.268;2024-01-16T00:08:54;-2.30;99.90
11079;DHT22;5592;49.234;7.268;2024-01-16T00:11:20;-2.30;99.90
11079;DHT22;5592;49.234;7.268;2024-01-16T00:13:45;-2.40;99.90
11079;DHT22;5592;49.234;7.268;2024-01-16T00:16:11;-2.40;99.90
11079;DHT22;5592;49.234;7.268;2024-01-16T00:18:36;-2.40;99.90
11079;DHT22;5592;49.234;7.268;2024-01-16T00:21:02;-2.30;99.90
11079;DHT22;5592;49.234;7.268;2024-01-16T00:23:29;-2.20;99.90
11079;DHT22;5592;49.234;7.268;2024-01-16T00:25:57;-2.20;99.90
11079;DHT22;5592;49.234;7.268;2024-01-16T00:28:26;-2.10;99.90
11079;DHT22;5592;49.234;7.268;2024-01-16T00:30:51;-2.10;99.90
11079;DHT22;5592;49.234;7.268;2024-01-16T00:33:17;-2.00;99.90
11079;DHT22;5592;49.234;7.268;2024-01-16T00:35:42;-1.90;99.90
11079;DHT22;5592;49.234;7.268;2024-01-16T00:38:08;-1.90;99.90
11079;DHT22;5592;49.234;7.268;2024-01-16T00:40:33;-1.80;99.90
11079;DHT22;5592;49.234;7.268;2024-01-16T00:42:59;-1.60;99.90
11079;DHT22;5592;49.234;7.268;2024-01-16T00:45:25;-1.60;99.90
11079;DHT22;5592;49.234;7.268;2024-01-16T00:47:50;-1.60;99.90
11079;DHT22;5592;49.234;7.268;2024-01-16T00:50:16;-1.60;99.90
11079;DHT22;5592;49.234;7.268;2024-01-16T00:52:41;-1.70;99.90
11079;DHT22;5592;49.234;7.268;2024-01-16T00:55:07;-1.50;99.90
11079;DHT22;5592;49.234;7.268;2024-01-16T00:57:33;-1.50;99.90
11079;DHT22;5592;49.234;7.268;2024-01-16T00:59:58;-1.40;99.90
11079;DHT22;5592;49.234;7.268;2024-01-16T01:02:24;-1.50;99.90
11079;DHT22;5592;49.234;7.268;2024-01-16T01:04:50;-1.50;99.90
11079;DHT22;5592;49.234;7.268;2024-01-16T01:07:15;-1.40;99.90
11079;DHT22;5592;49.234;7.268;2024-01-16T01:09:41;-1.40;99.90
11079;DHT22;5592;49.234;7.268;2024-01-16T01:12:07;-1.40;99.90
11079;DHT22;5592;49.234;7.268;2024-01-16T01:14:33;-1.40;99.90
11079;DHT22;5592;49.234;7.268;2024-01-16T01:16:59;-1.40;99.90
11079;DHT22;5592;49.234;7.268;2024-01-16T01:19:24;-1.40;99.90
11079;DHT22;5592;49.234;7.268;2024-01-16T01:21:50;-1.40;99.90
11079;DHT22;5592;49.234;7.268;2024-01-16T01:24:16;-1.40;99.90
11079;DHT22;5592;49.234;7.268;2024-01-16T01:26:44;-1.40;99.90
11079;DHT22;5592;49.234;7.268;2024-01-16T01:29:10;-1.50;99.90
11079;DHT22;5592;49.234;7.268;2024-01-16T01:31:36;-1.50;99.90
11079;DHT22;5592;49.234;7.268;2024-01-16T01:34:01;-1.60;99.90
11079;DHT22;5592;49.234;7.268;2024-01-16T01:36:27;-1.60;99.90
11079;DHT22;5592;49.234;7.268;2024-01-16T01:38:53;-1.60;99.90
11079;DHT22;5592;49.234;7.268;2024-01-16T01:41:18;-1.60;99.90
11079;DHT22;5592;49.234;7.268;2024-01-16T01:43:44;-1.70;99.90
11079;DHT22;5592;49.234;7.268;2024-01-16T01:46:19;-1.80;99.90
11079;DHT22;5592;49.234;7.268;2024-01-16T01:48:46;-1.90;99.90
11079;DHT22;5592;49.234;7.268;2024-01-16T01:51:14;-2.10;99.90
11079;DHT22;5592;49.234;7.268;2024-01-16T01:53:44;-2.20;99.90
11079;DHT22;5592;49.234;7.268;2024-01-16T01:56:17;-2.40;99.90
11079;DHT22;5592;49.234;7.268;2024-01-16T01:58:45;-2.40;99.90
11079;DHT22;5592;49.234;7.268;2024-01-16T02:01:12;-2.50;99.90
11079;DHT22;5592;49.234;7.268;2024-01-16T02:03:44;-2.50;99.90
11079;DHT22;5592;49.234;7.268;2024-01-16T02:06:13;-2.50;99.90
11079;DHT22;5592;49.234;7.268;2024-01-16T02:08:42;-2.50;99.90
11079;DHT22;5592;49.234;7.268;2024-01-16T02:11:08;-2.50;99.90
11079;DHT22;5592;49.234;7.268;2024-01-16T02:13:34;-2.50;99.90
11079;DHT22;5592;49.234;7.268;2024-01-16T02:16:00;-2.40;99.90
11079;DHT22;5592;49.234;7.268;2024-01-16T02:18:26;-2.40;99.90
11079;DHT22;5592;49.234;7.268;2024-01-16T02:20:52;-2.30;99.90
11079;DHT22;5592;49.234;7.268;2024-01-16T02:23:29;-2.20;99.90
11079;DHT22;5592;49.234;7.268;2024-01-16T02:25:56;-2.20;99.90
11079;DHT22;5592;49.234;7.268;2024-01-16T02:28:22;-2.20;99.90
11079;DHT22;5592;49.234;7.268;2024-01-16T02:30:48;-2.20;99.90
11079;DHT22;5592;49.234;7.268;2024-01-16T02:33:14;-2.20;99.90
11079;DHT22;5592;49.234;7.268;2024-01-16T02:35:39;-2.20;99.90
11079;DHT22;5592;49.234;7.268;2024-01-16T02:38:05;-2.20;99.90
11079;DHT22;5592;49.234;7.268;2024-01-16T02:40:30;-2.20;99.90
11079;DHT22;5592;49.234;7.268;2024-01-16T02:42:56;-2.10;99.90
11079;DHT22;5592;49.234;7.268;2024-01-16T02:45:22;-2.10;99.90
11079;DHT22;5592;49.234;7.268;2024-01-16T02:47:48;-2.10;99.90
11079;DHT22;5592;49.234;7.268;2024-01-16T02:50:13;-2.00;99.90
11079;DHT22;5592;49.234;7.268;2024-01-16T02:52:39;-2.00;99.90
11079;DHT22;5592;49.234;7.268;2024-01-16T02:55:05;-1.90;99.90
11079;DHT22;5592;49.234;7.268;2024-01-16T02:57:31;-1.90;99.90
11079;DHT22;5592;49.234;7.268;2024-01-16T02:59:57;-2.00;99.90
11079;DHT22;5592;49.234;7.268;2024-01-16T03:02:22;-2.00;99.90
11079;DHT22;5592;49.234;7.268;2024-01-16T03:04:49;-2.00;99.90
11079;DHT22;5592;49.234;7.268;2024-01-16T03:07:15;-2.00;99.90
11079;DHT22;5592;49.234;7.268;2024-01-16T03:09:41;-2.00;99.90
11079;DHT22;5592;49.234;7.268;2024-01-16T03:12:06;-1.90;99.90
11079;DHT22;5592;49.234;7.268;2024-01-16T03:14:32;-1.90;99.90
11079;DHT22;5592;49.234;7.268;2024-01-16T03:17:01;-1.90;99.90
11079;DHT22;5592;49.234;7.268;2024-01-16T03:19:27;-1.80;99.90
11079;DHT22;5592;49.234;7.268;2024-01-16T03:21:53;-1.70;99.90
11079;DHT22;5592;49.234;7.268;2024-01-16T03:24:19;-1.70;99.90
11079;DHT22;5592;49.234;7.268;2024-01-16T03:26:45;-1.60;99.90
11079;DHT22;5592;49.234;7.268;2024-01-16T03:29:11;-1.60;99.90
11079;DHT22;5592;49.234;7.268;2024-01-16T03:31:37;-1.60;99.90
11079;DHT22;5592;49.234;7.268;2024-01-16T03:34:02;-1.60;99.90
11079;DHT22;5592;49.234;7.268;2024-01-16T03:36:28;-1.70;99.90
11079;DHT22;5592;49.234;7.268;2024-01-16T03:38:54;-1.80;99.90
11079;DHT22;5592;49.234;7.268;2024-01-16T03:41:19;-1.80;99.90
11079;DHT22;5592;49.234;7.268;2024-01-16T03:43:45;-1.80;99.90
11079;DHT22;5592;49.234;7.268;2024-01-16T03:46:11;-1.80;99.90
11079;DHT22;5592;49.234;7.268;2024-01-16T03:48:37;-1.70;99.90
11079;DHT22;5592;49.234;7.268;2024-01-16T03:51:02;-1.80;99.90
11079;DHT22;5592;49.234;7.268;2024-01-16T03:53:28;-1.70;99.90
11079;DHT22;5592;49.234;7.268;2024-01-16T03:55:54;-1.70;99.90
11079;DHT22;5592;49.234;7.268;2024-01-16T03:58:19;-1.70;99.90
11079;DHT22;5592;49.234;7.268;2024-01-16T04:00:48;-1.80;99.90
11079;DHT22;5592;49.234;7.268;2024-01-16T04:03:16;-1.90;99.90
11079;DHT22;5592;49.234;7.268;2024-01-16T04:05:42;-1.90;99.90
11079;DHT22;5592;49.234;7.268;2024-01-16T04:08:07;-1.90;99.90
11079;DHT22;5592;49.234;7.268;2024-01-16T04:10:33;-2.00;99.90
11079;DHT22;5592;49.234;7.268;2024-01-16T04:13:02;-2.10;99.90
11079;DHT22;5592;49.234;7.268;2024-01-16T04:15:28;-2.20;99.90
11079;DHT22;5592;49.234;7.268;2024-01-16T04:17:54;-2.40;99.90
11079;DHT22;5592;49.234;7.268;2024-01-16T04:20:19;-2.50;99.90
11079;DHT22;5592;49.234;7.268;2024-01-16T04:22:45;-2.60;99.90
11079;DHT22;5592;49.234;7.268;2024-01-16T04:25:12;-2.60;99.90
11079;DHT22;5592;49.234;7.268;2024-01-16T04:27:39;-2.60;99.90
11079;DHT22;5592;49.234;7.268;2024-01-16T04:30:05;-2.70;99.90
11079;DHT22;5592;49.234;7.268;2024-01-16T04:32:30;-2.70;99.90
11079;DHT22;5592;49.234;7.268;2024-01-16T04:34:56;-2.70;99.90
11079;DHT22;5592;49.234;7.268;2024-01-16T04:37:22;-2.80;99.90
11079;DHT22;5592;49.234;7.268;2024-01-16T04:39:47;-2.80;99.90
11079;DHT22;5592;49.234;7.268;2024-01-16T04:42:13;-2.70;99.90
11079;DHT22;5592;49.234;7.268;2024-01-16T04:44:39;-2.90;99.90
11079;DHT22;5592;49.234;7.268;2024-01-16T04:47:04;-3.10;99.90
11079;DHT22;5592;49.234;7.268;2024-01-16T04:49:30;-3.20;99.90
11079;DHT22;5592;49.234;7.268;2024-01-16T04:51:55;-3.30;99.90
11079;DHT22;5592;49.234;7.268;2024-01-16T04:54:21;-3.40;99.90
11079;DHT22;5592;49.234;7.268;2024-01-16T04:56:49;-3.40;99.90
11079;DHT22;5592;49.234;7.268;2024-01-16T04:59:18;-3.50;99.90
11079;DHT22;5592;49.234;7.268;2024-01-16T05:01:44;-3.60;99.90
11079;DHT22;5592;49.234;7.268;2024-01-16T05:04:09;-3.80;99.90
11079;DHT22;5592;49.234;7.268;2024-01-16T05:06:35;-3.90;99.90
11079;DHT22;5592;49.234;7.268;2024-01-16T05:09:01;-3.90;99.90
11079;DHT22;5592;49.234;7.268;2024-01-16T05:11:28;-3.80;99.90
11079;DHT22;5592;49.234;7.268;2024-01-16T05:13:54;-3.70;99.90
11079;DHT22;5592;49.234;7.268;2024-01-16T05:16:26;-3.90;99.90
11079;DHT22;5592;49.234;7.268;2024-01-16T05:18:52;-4.00;99.90
11079;DHT22;5592;49.234;7.268;2024-01-16T05:21:18;-4.20;99.90
11079;DHT22;5592;49.234;7.268;2024-01-16T05:23:44;-4.40;99.90
11079;DHT22;5592;49.234;7.268;2024-01-16T05:26:09;-4.50;99.90
11079;DHT22;5592;49.234;7.268;2024-01-16T05:28:35;-4.60;99.90
11079;DHT22;5592;49.234;7.268;2024-01-16T05:31:01;-4.80;99.90
11079;DHT22;5592;49.234;7.268;2024-01-16T05:33:27;-4.90;99.90
11079;DHT22;5592;49.234;7.268;2024-01-16T05:35:52;-4.90;99.90
11079;DHT22;5592;49.234;7.268;2024-01-16T05:38:18;-4.80;99.90
11079;DHT22;5592;49.234;7.268;2024-01-16T05:40:43;-4.90;99.90
11079;DHT22;5592;49.234;7.268;2024-01-16T05:43:09;-4.90;99.90
11079;DHT22;5592;49.234;7.268;2024-01-16T05:45:38;-4.90;99.90
11079;DHT22;5592;49.234;7.268;2024-01-16T05:48:03;-4.90;99.90
11079;DHT22;5592;49.234;7.268;2024-01-16T05:50:29;-4.90;99.90
11079;DHT22;5592;49.234;7.268;2024-01-16T05:52:55;-4.80;99.90
11079;DHT22;5592;49.234;7.268;2024-01-16T05:55:21;-4.90;99.90
11079;DHT22;5592;49.234;7.268;2024-01-16T05:57:46;-4.90;99.90
11079;DHT22;5592;49.234;7.268;2024-01-16T06:00:13;-4.90;99.90
11079;DHT22;5592;49.234;7.268;2024-01-16T06:02:38;-4.90;99.90
11079;DHT22;5592;49.234;7.268;2024-01-16T06:05:04;-4.90;99.90
11079;DHT22;5592;49.234;7.268;2024-01-16T06:07:31;-4.90;99.90
11079;DHT22;5592;49.234;7.268;2024-01-16T06:09:56;-5.00;99.90
11079;DHT22;5592;49.234;7.268;2024-01-16T06:12:22;-4.90;99.90
11079;DHT22;5592;49.234;7.268;2024-01-16T06:14:47;-4.90;99.90
11079;DHT22;5592;49.234;7.268;2024-01-16T06:17:13;-4.80;99.90
11079;DHT22;5592;49.234;7.268;2024-01-16T06:19:39;-4.80;99.90
11079;DHT22;5592;49.234;7.268;2024-01-16T06:22:05;-4.80;99.90
11079;DHT22;5592;49.234;7.268;2024-01-16T06:24:30;-4.70;99.90
11079;DHT22;5592;49.234;7.268;2024-01-16T06:27:05;-4.70;99.90
11079;DHT22;5592;49.234;7.268;2024-01-16T06:29:31;-4.70;99.90
11079;DHT22;5592;49.234;7.268;2024-01-16T06:31:57;-4.70;99.90
11079;DHT22;5592;49.234;7.268;2024-01-16T06:34:25;-4.60;99.90
11079;DHT22;5592;49.234;7.268;2024-01-16T06:36:51;-4.60;99.90
11079;DHT22;5592;49.234;7.268;2024-01-16T06:39:18;-4.60;99.90
11079;DHT22;5592;49.234;7.268;2024-01-16T06:41:44;-4.60;99.90
11079;DHT22;5592;49.234;7.268;2024-01-16T06:44:09;-4.60;99.90
11079;DHT22;5592;49.234;7.268;2024-01-16T06:46:35;-4.60;99.90
11079;DHT22;5592;49.234;7.268;2024-01-16T06:49:01;-4.60;99.90
11079;DHT22;5592;49.234;7.268;2024-01-16T06:51:27;-4.50;99.90
11079;DHT22;5592;49.234;7.268;2024-01-16T06:53:55;-4.40;99.90
11079;DHT22;5592;49.234;7.268;2024-01-16T06:56:21;-4.40;99.90
11079;DHT22;5592;49.234;7.268;2024-01-16T06:58:46;-4.40;99.90
11079;DHT22;5592;49.234;7.268;2024-01-16T07:01:12;-4.40;99.90
11079;DHT22;5592;49.234;7.268;2024-01-16T07:03:38;-4.40;99.90
11079;DHT22;5592;49.234;7.268;2024-01-16T07:06:11;-4.30;99.90
11079;DHT22;5592;49.234;7.268;2024-01-16T07:08:40;-4.20;99.90
11079;DHT22;5592;49.234;7.268;2024-01-16T07:11:06;-4.20;99.90
11079;DHT22;5592;49.234;7.268;2024-01-16T07:13:34;-4.20;99.90
11079;DHT22;5592;49.234;7.268;2024-01-16T07:16:00;-4.10;99.90
11079;DHT22;5592;49.234;7.268;2024-01-16T07:18:35;-4.10;99.90
11079;DHT22;5592;49.234;7.268;2024-01-16T07:21:02;-4.10;99.90
11079;DHT22;5592;49.234;7.268;2024-01-16T07:23:28;-4.10;99.90
11079;DHT22;5592;49.234;7.268;2024-01-16T07:25:54;-4.10;99.90
11079;DHT22;5592;49.234;7.268;2024-01-16T07:28:22;-4.00;99.90
11079;DHT22;5592;49.234;7.268;2024-01-16T07:30:48;-4.00;99.90
11079;DHT22;5592;49.234;7.268;2024-01-16T07:33:16;-4.00;99.90
11079;DHT22;5592;49.234;7.268;2024-01-16T07:35:41;-4.00;99.90
11079;DHT22;5592;49.234;7.268;2024-01-16T07:38:09;-4.10;99.90
11079;DHT22;5592;49.234;7.268;2024-01-16T07:40:34;-4.00;99.90
11079;DHT22;5592;49.234;7.268;2024-01-16T07:43:01;-4.00;99.90
11079;DHT22;5592;49.234;7.268;2024-01-16T07:45:27;-4.00;99.90
11079;DHT22;5592;49.234;7.268;2024-01-16T07:47:53;-3.90;99.90
11079;DHT22;5592;49.234;7.268;2024-01-16T07:50:22;-3.90;99.90
11079;DHT22;5592;49.234;7.268;2024-01-16T07:52:48;-3.80;99.90
11079;DHT22;5592;49.234;7.268;2024-01-16T07:55:15;-3.80;99.90
11079;DHT22;5592;49.234;7.268;2024-01-16T07:57:40;-3.70;99.90
11079;DHT22;5592;49.234;7.268;2024-01-16T08:00:07;-3.60;99.90
11079;DHT22;5592;49.234;7.268;2024-01-16T08:02:37;-3.60;99.90
11079;DHT22;5592;49.234;7.268;2024-01-16T08:05:05;-3.50;99.90
11079;DHT22;5592;49.234;7.268;2024-01-16T08:07:34;-3.50;99.90
11079;DHT22;5592;49.234;7.268;2024-01-16T08:10:01;-3.40;99.90
11079;DHT22;5592;49.234;7.268;2024-01-16T08:12:27;-3.40;99.90
11079;DHT22;5592;49.234;7.268;2024-01-16T08:14:53;-3.30;99.90
11079;DHT22;5592;49.234;7.268;2024-01-16T08:17:18;-3.20;99.90
11079;DHT22;5592;49.234;7.268;2024-01-16T08:19:44;-3.20;99.90
11079;DHT22;5592;49.234;7.268;2024-01-16T08:22:10;-3.00;99.90
11079;DHT22;5592;49.234;7.268;2024-01-16T08:24:36;-2.80;99.90
11079;DHT22;5592;49.234;7.268;2024-01-16T08:27:04;-2.80;99.90
11079;DHT22;5592;49.234;7.268;2024-01-16T08:29:30;-2.70;99.90
11079;DHT22;5592;49.234;7.268;2024-01-16T08:31:55;-2.50;99.90
11079;DHT22;5592;49.234;7.268;2024-01-16T08:34:21;-2.40;99.90
11079;DHT22;5592;49.234;7.268;2024-01-16T08:36:47;-2.40;99.90
11079;DHT22;5592;49.234;7.268;2024-01-16T08:39:12;-2.30;99.90
11079;DHT22;5592;49.234;7.268;2024-01-16T08:41:39;-2.20;99.90
11079;DHT22;5592;49.234;7.268;2024-01-16T08:44:06;-2.00;99.90
11079;DHT22;5592;49.234;7.268;2024-01-16T08:46:32;-1.90;99.90
11079;DHT22;5592;49.234;7.268;2024-01-16T08:48:57;-1.80;99.90
11079;DHT22;5592;49.234;7.268;2024-01-16T08:51:23;-1.70;99.90
11079;DHT22;5592;49.234;7.268;2024-01-16T08:53:48;-1.70;99.90
11079;DHT22;5592;49.234;7.268;2024-01-16T08:56:14;-1.60;99.90
11079;DHT22;5592;49.234;7.268;2024-01-16T08:58:39;-1.60;99.90
11079;DHT22;5592;49.234;7.268;2024-01-16T09:01:05;-1.70;99.90
11079;DHT22;5592;49.234;7.268;2024-01-16T09:03:34;-1.60;99.90
11079;DHT22;5592;49.234;7.268;2024-01-16T09:06:00;-1.60;99.90
11079;DHT22;5592;49.234;7.268;2024-01-16T09:08:28;-1.50;99.90
11079;DHT22;5592;49.234;7.268;2024-01-16T09:10:54;-1.40;99.90
11079;DHT22;5592;49.234;7.268;2024-01-16T09:13:21;-1.40;99.90
11079;DHT22;5592;49.234;7.268;2024-01-16T09:15:49;-1.20;99.90
11079;DHT22;5592;49.234;7.268;2024-01-16T09:18:15;-1.10;99.90
11079;DHT22;5592;49.234;7.268;2024-01-16T09:20:43;-0.90;99.90
11079;DHT22;5592;49.234;7.268;2024-01-16T09:23:09;-0.70;99.90
11079;DHT22;5592;49.234;7.268;2024-01-16T09:25:35;-0.60;99.90
11079;DHT22;5592;49.234;7.268;2024-01-16T09:28:01;-0.40;99.90
11079;DHT22;5592;49.234;7.268;2024-01-16T09:30:27;-0.40;99.90
11079;DHT22;5592;49.234;7.268;2024-01-16T09:32:52;-0.30;99.90
11079;DHT22;5592;49.234;7.268;2024-01-16T09:35:18;-0.20;99.90
11079;DHT22;5592;49.234;7.268;2024-01-16T09:37:44;0.00;99.90
11079;DHT22;5592;49.234;7.268;2024-01-16T09:40:10;0.10;99.90
11079;DHT22;5592;49.234;7.268;2024-01-16T09:42:37;0.30;99.90
11079;DHT22;5592;49.234;7.268;2024-01-16T09:45:03;0.50;99.90
11079;DHT22;5592;49.234;7.268;2024-01-16T09:47:33;0.80;99.90
11079;DHT22;5592;49.234;7.268;2024-01-16T09:49:59;1.20;99.90
11079;DHT22;5592;49.234;7.268;2024-01-16T09:52:29;1.90;99.90
11079;DHT22;5592;49.234;7.268;2024-01-16T09:54:55;2.60;99.90
11079;DHT22;5592;49.234;7.268;2024-01-16T09:57:26;3.30;99.90
11079;DHT22;5592;49.234;7.268;2024-01-16T09:59:59;4.30;99.90
11079;DHT22;5592;49.234;7.268;2024-01-16T10:02:28;5.40;99.90
11079;DHT22;5592;49.234;7.268;2024-01-16T10:04:55;6.20;99.90
11079;DHT22;5592;49.234;7.268;2024-01-16T10:07:22;6.50;99.90
11079;DHT22;5592;49.234;7.268;2024-01-16T10:09:55;6.40;99.90
11079;DHT22;5592;49.234;7.268;2024-01-16T10:12:21;7.10;99.90
11079;DHT22;5592;49.234;7.268;2024-01-16T10:14:48;7.50;99.90
11079;DHT22;5592;49.234;7.268;2024-01-16T10:17:17;8.00;99.90
11079;DHT22;5592;49.234;7.268;2024-01-16T10:20:02;8.30;99.90
11079;DHT22;5592;49.234;7.268;2024-01-16T10:22:30;8.60;99.90
11079;DHT22;5592;49.234;7.268;2024-01-16T10:25:10;8.20;99.90
11079;DHT22;5592;49.234;7.268;2024-01-16T10:27:39;7.90;99.90
11079;DHT22;5592;49.234;7.268;2024-01-16T10:30:09;7.30;99.90
11079;DHT22;5592;49.234;7.268;2024-01-16T10:32:39;6.70;99.90
11079;DHT22;5592;49.234;7.268;2024-01-16T10:35:13;5.90;99.90
11079;DHT22;5592;49.234;7.268;2024-01-16T10:37:43;5.60;99.90
11079;DHT22;5592;49.234;7.268;2024-01-16T10:40:09;5.80;99.90
11079;DHT22;5592;49.234;7.268;2024-01-16T10:42:34;5.80;99.90
11079;DHT22;5592;49.234;7.268;2024-01-16T10:45:00;5.80;99.90
11079;DHT22;5592;49.234;7.268;2024-01-16T10:47:26;5.90;99.90
11079;DHT22;5592;49.234;7.268;2024-01-16T10:49:51;6.60;99.90
11079;DHT22;5592;49.234;7.268;2024-01-16T10:52:18;7.50;99.90
11079;DHT22;5592;49.234;7.268;2024-01-16T10:54:46;7.50;99.90
11079;DHT22;5592;49.234;7.268;2024-01-16T10:57:16;7.90;99.90
11079;DHT22;5592;49.234;7.268;2024-01-16T11:02:34;8.20;99.90
11079;DHT22;5592;49.234;7.268;2024-01-16T11:05:03;8.20;99.90
11079;DHT22;5592;49.234;7.268;2024-01-16T11:07:37;8.90;99.90
11079;DHT22;5592;49.234;7.268;2024-01-16T11:10:10;9.10;99.90
11079;DHT22;5592;49.234;7.268;2024-01-16T11:12:38;8.90;99.90
11079;DHT22;5592;49.234;7.268;2024-01-16T11:15:05;8.70;99.90
11079;DHT22;5592;49.234;7.268;2024-01-16T11:17:33;8.50;99.90
11079;DHT22;5592;49.234;7.268;2024-01-16T11:20:00;8.50;99.90
11079;DHT22;5592;49.234;7.268;2024-01-16T11:22:27;8.50;99.90
11079;DHT22;5592;49.234;7.268;2024-01-16T11:27:42;8.20;99.90
11079;DHT22;5592;49.234;7.268;2024-01-16T11:30:09;8.20;99.90
11079;DHT22;5592;49.234;7.268;2024-01-16T11:32:45;8.10;99.90
11079;DHT22;5592;49.234;7.268;2024-01-16T11:35:10;8.10;99.90
11079;DHT22;5592;49.234;7.268;2024-01-16T11:37:42;7.90;99.90
11079;DHT22;5592;49.234;7.268;2024-01-16T11:42:46;7.20;99.90
11079;DHT22;5592;49.234;7.268;2024-01-16T11:48:15;6.70;99.90
11079;DHT22;5592;49.234;7.268;2024-01-16T11:50:42;6.80;99.90
11079;DHT22;5592;49.234;7.268;2024-01-16T11:53:08;6.20;99.90
11079;DHT22;5592;49.234;7.268;2024-01-16T11:55:38;5.70;99.90
11079;DHT22;5592;49.234;7.268;2024-01-16T12:01:06;4.90;99.90
11079;DHT22;5592;49.234;7.268;2024-01-16T12:03:32;4.70;99.90
11079;DHT22;5592;49.234;7.268;2024-01-16T12:05:59;4.60;99.90
11079;DHT22;5592;49.234;7.268;2024-01-16T12:08:25;4.30;99.90
11079;DHT22;5592;49.234;7.268;2024-01-16T12:10:52;3.80;99.90
11079;DHT22;5592;49.234;7.268;2024-01-16T12:13:18;3.80;99.90
11079;DHT22;5592;49.234;7.268;2024-01-16T12:15:44;3.70;99.90
11079;DHT22;5592;49.234;7.268;2024-01-16T12:18:09;3.60;99.90
11079;DHT22;5592;49.234;7.268;2024-01-16T12:20:38;3.50;99.90
11079;DHT22;5592;49.234;7.268;2024-01-16T12:23:05;3.10;99.90
11079;DHT22;5592;49.234;7.268;2024-01-16T12:25:33;2.90;99.90
11079;DHT22;5592;49.234;7.268;2024-01-16T12:28:04;2.70;99.90
11079;DHT22;5592;49.234;7.268;2024-01-16T12:30:32;2.50;99.90
11079;DHT22;5592;49.234;7.268;2024-01-16T12:33:09;2.50;99.90
11079;DHT22;5592;49.234;7.268;2024-01-16T12:35:42;2.40;99.90
11079;DHT22;5592;49.234;7.268;2024-01-16T12:38:10;2.20;99.90
11079;DHT22;5592;49.234;7.268;2024-01-16T12:40:40;2.20;99.90
11079;DHT22;5592;49.234;7.268;2024-01-16T12:43:08;2.30;99.90
11079;DHT22;5592;49.234;7.268;2024-01-16T12:45:34;2.20;99.90
11079;DHT22;5592;49.234;7.268;2024-01-16T12:48:01;2.20;99.90
11079;DHT22;5592;49.234;7.268;2024-01-16T12:50:29;2.10;99.90
11079;DHT22;5592;49.234;7.268;2024-01-16T12:53:11;1.90;99.90
11079;DHT22;5592;49.234;7.268;2024-01-16T12:55:40;1.90;99.90
11079;DHT22;5592;49.234;7.268;2024-01-16T13:00:37;1.60;99.90
11079;DHT22;5592;49.234;7.268;2024-01-16T13:03:05;1.70;99.90
11079;DHT22;5592;49.234;7.268;2024-01-16T13:05:30;1.70;99.90
11079;DHT22;5592;49.234;7.268;2024-01-16T13:08:03;1.70;99.90
11079;DHT22;5592;49.234;7.268;2024-01-16T13:10:29;1.80;99.90
11079;DHT22;5592;49.234;7.268;2024-01-16T13:13:17;1.80;99.90
11079;DHT22;5592;49.234;7.268;2024-01-16T13:15:43;1.90;99.90
11079;DHT22;5592;49.234;7.268;2024-01-16T13:18:19;1.80;99.90
11079;DHT22;5592;49.234;7.268;2024-01-16T13:20:47;1.80;99.90
11079;DHT22;5592;49.234;7.268;2024-01-16T13:23:14;1.80;99.90
11079;DHT22;5592;49.234;7.268;2024-01-16T13:25:41;1.70;99.90
11079;DHT22;5592;49.234;7.268;2024-01-16T13:28:07;1.70;99.90
11079;DHT22;5592;49.234;7.268;2024-01-16T13:30:33;1.60;99.90
11079;DHT22;5592;49.234;7.268;2024-01-16T13:32:59;1.60;99.90
11079;DHT22;5592;49.234;7.268;2024-01-16T13:35:24;1.50;99.90
11079;DHT22;5592;49.234;7.268;2024-01-16T13:37:50;1.50;99.90
11079;DHT22;5592;49.234;7.268;2024-01-16T13:40:16;1.50;99.90
11079;DHT22;5592;49.234;7.268;2024-01-16T13:42:44;1.40;99.90
11079;DHT22;5592;49.234;7.268;2024-01-16T13:45:11;1.30;99.90
11079;DHT22;5592;49.234;7.268;2024-01-16T13:47:38;1.30;99.90
11079;DHT22;5592;49.234;7.268;2024-01-16T13:50:09;1.20;99.90
11079;DHT22;5592;49.234;7.268;2024-01-16T13:52:36;1.30;99.90
11079;DHT22;5592;49.234;7.268;2024-01-16T13:55:02;1.20;99.90
11079;DHT22;5592;49.234;7.268;2024-01-16T13:57:31;1.20;99.90
11079;DHT22;5592;49.234;7.268;2024-01-16T13:59:58;1.20;99.90
11079;DHT22;5592;49.234;7.268;2024-01-16T14:02:24;1.20;99.90
11079;DHT22;5592;49.234;7.268;2024-01-16T14:04:50;1.20;99.90
11079;DHT22;5592;49.234;7.268;2024-01-16T14:07:16;1.20;99.90
11079;DHT22;5592;49.234;7.268;2024-01-16T14:09:42;1.10;99.90
11079;DHT22;5592;49.234;7.268;2024-01-16T14:12:08;1.00;99.90
11079;DHT22;5592;49.234;7.268;2024-01-16T14:14:34;0.90;99.90
11079;DHT22;5592;49.234;7.268;2024-01-16T14:17:01;0.90;99.90
11079;DHT22;5592;49.234;7.268;2024-01-16T14:19:27;0.90;99.90
11079;DHT22;5592;49.234;7.268;2024-01-16T14:21:55;0.80;99.90
11079;DHT22;5592;49.234;7.268;2024-01-16T14:24:20;0.80;99.90
11079;DHT22;5592;49.234;7.268;2024-01-16T14:26:47;0.70;99.90
11079;DHT22;5592;49.234;7.268;2024-01-16T14:29:14;0.80;99.90
11079;DHT22;5592;49.234;7.268;2024-01-16T14:31:40;0.80;99.90
11079;DHT22;5592;49.234;7.268;2024-01-16T14:34:10;0.70;99.90
11079;DHT22;5592;49.234;7.268;2024-01-16T14:36:40;0.70;99.90
11079;DHT22;5592;49.234;7.268;2024-01-16T14:39:05;0.60;99.90
11079;DHT22;5592;49.234;7.268;2024-01-16T14:41:31;0.50;99.90
11079;DHT22;5592;49.234;7.268;2024-01-16T14:43:57;0.40;99.90
11079;DHT22;5592;49.234;7.268;2024-01-16T14:46:23;0.40;99.90
11079;DHT22;5592;49.234;7.268;2024-01-16T14:48:48;0.50;99.90
11079;DHT22;5592;49.234;7.268;2024-01-16T14:51:14;0.40;99.90
11079;DHT22;5592;49.234;7.268;2024-01-16T14:53:40;0.30;99.90
11079;DHT22;5592;49.234;7.268;2024-01-16T14:56:05;0.30;99.90
11079;DHT22;5592;49.234;7.268;2024-01-16T14:58:31;0.30;99.90
11079;DHT22;5592;49.234;7.268;2024-01-16T15:00:57;0.10;99.90
11079;DHT22;5592;49.234;7.268;2024-01-16T15:03:24;0.00;99.90
11079;DHT22;5592;49.234;7.268;2024-01-16T15:05:50;-0.10;99.90
11079;DHT22;5592;49.234;7.268;2024-01-16T15:08:17;-0.20;99.90
11079;DHT22;5592;49.234;7.268;2024-01-16T15:10:43;-0.30;99.90
11079;DHT22;5592;49.234;7.268;2024-01-16T15:13:09;-0.30;99.90
11079;DHT22;5592;49.234;7.268;2024-01-16T15:15:35;-0.40;99.90
11079;DHT22;5592;49.234;7.268;2024-01-16T15:18:02;-0.60;99.90
11079;DHT22;5592;49.234;7.268;2024-01-16T15:20:27;-0.70;99.90
11079;DHT22;5592;49.234;7.268;2024-01-16T15:22:53;-0.80;99.90
11079;DHT22;5592;49.234;7.268;2024-01-16T15:25:19;-1.00;99.90
11079;DHT22;5592;49.234;7.268;2024-01-16T15:27:49;-1.10;99.90
11079;DHT22;5592;49.234;7.268;2024-01-16T15:30:19;-1.20;99.90
11079;DHT22;5592;49.234;7.268;2024-01-16T15:32:47;-1.40;99.90
11079;DHT22;5592;49.234;7.268;2024-01-16T15:35:13;-1.50;99.90
11079;DHT22;5592;49.234;7.268;2024-01-16T15:37:39;-1.60;99.90
11079;DHT22;5592;49.234;7.268;2024-01-16T15:40:05;-1.80;99.90
11079;DHT22;5592;49.234;7.268;2024-01-16T15:42:32;-1.90;99.90
11079;DHT22;5592;49.234;7.268;2024-01-16T15:44:58;-2.00;99.90
11079;DHT22;5592;49.234;7.268;2024-01-16T15:47:24;-2.10;99.90
11079;DHT22;5592;49.234;7.268;2024-01-16T15:49:52;-2.20;99.90
11079;DHT22;5592;49.234;7.268;2024-01-16T15:52:19;-2.30;99.90
11079;DHT22;5592;49.234;7.268;2024-01-16T15:54:45;-2.50;99.90
11079;DHT22;5592;49.234;7.268;2024-01-16T15:57:11;-2.60;99.90
11079;DHT22;5592;49.234;7.268;2024-01-16T15:59:36;-2.80;99.90
11079;DHT22;5592;49.234;7.268;2024-01-16T16:02:02;-2.90;99.90
11079;DHT22;5592;49.234;7.268;2024-01-16T16:04:32;-3.10;99.90
11079;DHT22;5592;49.234;7.268;2024-01-16T16:06:57;-3.20;99.90